This is the latest recevied weather packets stored in our database for station/object WX6YYZ. If no packets are shown the sender has not sent any weather packets the latest 10 day(s).
| Time | Temp. | Humidity | Pressure | Rain* | Wind** | Luminosity | Snow |
|---|---|---|---|---|---|---|---|
| 1777412646 | 23.33° C | 36% | 1015.9 hPa | 0 mm | - | - | - |
| 1777410507 | 22.78° C | 37% | 1016.6 hPa | 0 mm | - | - | - |
| 1777410206 | 22.78° C | 36% | 1016.6 hPa | 0 mm | - | - | - |
| 1777409604 | 22.22° C | 36% | 1016.6 hPa | 0 mm | - | - | - |
| 1777408670 | 22.22° C | 37% | 1016.6 hPa | 0 mm | - | - | - |
| 1777406531 | 21.67° C | 36% | 1016.9 hPa | 0 mm | - | - | - |
| 1777405327 | 21.67° C | 37% | 1017.3 hPa | 0 mm | - | - | - |
| 1777404726 | 21.11° C | 40% | 1017.6 hPa | 0 mm | - | - | - |
| 1777401383 | 18.89° C | 47% | 1017.9 hPa | 0 mm | - | - | - |
| 1777398310 | 17.22° C | 52% | 1018.6 hPa | 0 mm | - | - | - |
| 1777394873 | 16.11° C | 57% | 1019 hPa | 0 mm | - | - | - |
| 1777393368 | 15.56° C | 64% | 1019 hPa | 0 mm | - | - | - |
| 1777393067 | 15.56° C | 64% | 1019 hPa | 0 mm | - | - | - |
| 1777390897 | 13.89° C | 69% | 1019 hPa | 0 mm | - | - | - |
| 1777390296 | 12.78° C | 73% | 1019 hPa | 0 mm | - | - | - |
| 1777388188 | 10.56° C | 81% | 1019 hPa | 0 mm | - | - | - |
| 1777387586 | 10° C | 82% | 1019 hPa | 0 mm | - | - | - |
| 1777386984 | 10° C | 83% | 1019 hPa | 0 mm | - | - | - |
| 1777385178 | 8.89° C | 86% | 1019 hPa | 0 mm | - | - | - |
| 1777383642 | 8.89° C | 85% | 1018.6 hPa | 0 mm | - | - | - |
| 1777381837 | 8.89° C | 85% | 1018.3 hPa | 0 mm | - | - | - |
| 1777381536 | 8.89° C | 84% | 1018.3 hPa | 0 mm | - | - | - |
| 1777381236 | 8.89° C | 84% | 1018.3 hPa | 0 mm | - | - | - |
| 1777380935 | 8.89° C | 84% | 1017.9 hPa | 0 mm | - | - | - |
| 1777379066 | 9.44° C | 83% | 1017.6 hPa | 0 mm | - | - | - |
* Rain latest hour (hover to see other rain measurements)
** Current wind speed in m/s (hover to see current wind gust speed)